Time,TemperatureF,DewpointF,PressureIn,WindDirection,WindDirectionDegrees,WindSpeedMPH,WindSpeedGustMPH,Humidity,HourlyPrecipIn,Conditions,Clouds,dailyrainin,SoftwareType,DateUTC
2013-08-15 00:14:00,63.3,58.0,30.03,SSW,212,0.0,0.0,84,0.00,,,0.00,weatherlink.com 1.10,2013-08-15 04:14:00,
2013-08-15 00:29:00,63.2,58.0,30.03,SW,214,0.0,1.0,84,0.00,,,0.00,weatherlink.com 1.10,2013-08-15 04:29:00,
2013-08-15 00:44:00,62.6,58.0,30.03,SW,214,0.0,0.0,85,0.00,,,0.00,weatherlink.com 1.10,2013-08-15 04:44:00,
2013-08-15 00:59:00,62.0,58.0,30.03,SW,214,0.0,0.0,87,0.00,,,0.00,weatherlink.com 1.10,2013-08-15 04:59:00,
2013-08-15 01:14:00,61.7,58.0,30.03,East,93,0.0,1.0,86,0.00,,,0.00,weatherlink.com 1.10,2013-08-15 05:14:00,
2013-08-15 01:29:00,62.3,58.0,30.03,East,93,0.0,0.0,87,0.00,,,0.00,weatherlink.com 1.10,2013-08-15 05:29:00,
2013-08-15 01:44:00,62.5,58.0,30.03,East,93,0.0,0.0,84,0.00,,,0.00,weatherlink.com 1.10,2013-08-15 05:44:00,
2013-08-15 01:59:00,63.5,58.0,30.03,NE,56,0.0,1.0,81,0.00,,,0.00,weatherlink.com 1.10,2013-08-15 05:59:00,
2013-08-15 02:14:00,64.2,58.0,30.03,SW,222,0.0,1.0,80,0.00,,,0.00,weatherlink.com 1.10,2013-08-15 06:14:00,
2013-08-15 02:29:00,64.7,58.0,30.03,SW,221,0.0,1.0,80,0.00,,,0.00,weatherlink.com 1.10,2013-08-15 06:29:00,
2013-08-15 02:44:00,64.9,58.0,30.02,NE,47,0.0,3.0,78,0.00,,,0.00,weatherlink.com 1.10,2013-08-15 06:44:00,
2013-08-15 02:59:00,65.0,58.0,30.02,West,267,0.0,1.0,78,0.00,,,0.00,weatherlink.com 1.10,2013-08-15 06:59:00,
2013-08-15 03:17:00,64.7,57.0,30.02,NW,314,0.0,3.0,77,0.00,,,0.00,weatherlink.com 1.10,2013-08-15 07:17:00,
2013-08-15 03:29:00,64.8,57.0,30.02,East,92,0.0,3.0,77,0.00,,,0.00,weatherlink.com 1.10,2013-08-15 07:29:00,
2013-08-15 03:44:00,64.8,57.0,30.02,WNW,297,1.0,2.0,77,0.00,,,0.00,weatherlink.com 1.10,2013-08-15 07:44:00,
2013-08-15 03:59:00,65.0,57.0,30.02,NE,55,0.0,5.0,76,0.00,,,0.00,weatherlink.com 1.10,2013-08-15 07:59:00,
2013-08-15 04:14:00,64.7,57.0,30.02,ENE,58,2.0,2.0,77,0.00,,,0.00,weatherlink.com 1.10,2013-08-15 08:14:00,
2013-08-15 04:29:00,64.3,57.0,30.02,SSE,153,0.0,3.0,78,0.00,,,0.00,weatherlink.com 1.10,2013-08-15 08:29:00,
2013-08-15 04:44:00,64.3,57.0,30.02,SW,219,0.0,3.0,78,0.00,,,0.00,weatherlink.com 1.10,2013-08-15 08:44:00,
2013-08-15 04:59:00,64.3,57.0,30.02,WNW,290,0.0,1.0,78,0.00,,,0.00,weatherlink.com 1.10,2013-08-15 08:59:00,
2013-08-15 05:14:00,64.2,58.0,30.02,NW,319,0.0,1.0,79,0.00,,,0.00,weatherlink.com 1.10,2013-08-15 09:14:00,
2013-08-15 05:29:00,64.2,58.0,30.02,ESE,107,0.0,2.0,79,0.00,,,0.00,weatherlink.com 1.10,2013-08-15 09:29:00,
2013-08-15 05:44:00,63.8,57.0,30.02,SSW,207,0.0,2.0,79,0.00,,,0.00,weatherlink.com 1.10,2013-08-15 09:44:00,
2013-08-15 05:59:00,63.3,57.0,30.02,North,10,0.0,3.0,80,0.00,,,0.00,weatherlink.com 1.10,2013-08-15 09:59:00,
2013-08-15 06:14:00,62.9,57.0,30.02,ENE,63,0.0,1.0,81,0.00,,,0.00,weatherlink.com 1.10,2013-08-15 10:14:00,
2013-08-15 06:29:00,62.7,57.0,30.02,North,356,0.0,1.0,82,0.00,,,0.00,weatherlink.com 1.10,2013-08-15 10:29:00,
2013-08-15 06:44:00,62.7,57.0,30.03,West,276,1.0,1.0,82,0.00,,,0.00,weatherlink.com 1.10,2013-08-15 10:44:00,
2013-08-15 06:59:00,62.8,57.0,30.03,East,82,0.0,1.0,82,0.00,,,0.00,weatherlink.com 1.10,2013-08-15 10:59:00,
2013-08-15 07:14:00,62.8,57.0,30.04,SW,220,0.0,1.0,82,0.00,,,0.00,weatherlink.com 1.10,2013-08-15 11:14:00,
2013-08-15 07:29:00,63.1,57.0,30.04,ENE,70,0.0,2.0,81,0.00,,,0.00,weatherlink.com 1.10,2013-08-15 11:29:00,
2013-08-15 07:44:00,63.3,58.0,30.05,NNE,16,1.0,2.0,82,0.00,,,0.00,weatherlink.com 1.10,2013-08-15 11:44:00,
2013-08-15 08:00:00,63.5,58.0,30.05,North,351,0.0,1.0,81,0.00,,,0.00,weatherlink.com 1.10,2013-08-15 12:00:00,
2013-08-15 08:15:00,63.4,58.0,30.05,NNW,340,0.0,1.0,83,0.00,,,0.00,weatherlink.com 1.10,2013-08-15 12:15:00,
2013-08-15 08:30:00,63.4,58.0,30.05,North,10,0.0,1.0,83,0.00,,,0.00,weatherlink.com 1.10,2013-08-15 12:30:00,
2013-08-15 08:45:00,63.6,58.0,30.06,ESE,116,0.0,2.0,82,0.00,,,0.00,weatherlink.com 1.10,2013-08-15 12:45:00,
2013-08-15 09:00:00,63.8,58.0,30.06,NNW,345,0.0,2.0,82,0.00,,,0.00,weatherlink.com 1.10,2013-08-15 13:00:00,
2013-08-15 09:15:00,64.3,58.0,30.06,SW,226,0.0,3.0,81,0.00,,,0.00,weatherlink.com 1.10,2013-08-15 13:15:00,
2013-08-15 09:30:00,65.5,59.0,30.06,NE,54,0.0,4.0,79,0.00,,,0.00,weatherlink.com 1.10,2013-08-15 13:30:00,
2013-08-15 09:45:00,66.0,59.0,30.06,WSW,257,0.0,2.0,79,0.00,,,0.00,weatherlink.com 1.10,2013-08-15 13:45:00,
2013-08-15 10:00:00,66.4,60.0,30.06,East,81,0.0,3.0,79,0.00,,,0.00,weatherlink.com 1.10,2013-08-15 14:00:00,
2013-08-15 10:15:00,66.8,60.0,30.06,NW,307,1.0,2.0,79,0.00,,,0.00,weatherlink.com 1.10,2013-08-15 14:15:00,
2013-08-15 10:30:00,67.3,61.0,30.06,East,96,0.0,1.0,79,0.00,,,0.00,weatherlink.com 1.10,2013-08-15 14:30:00,
2013-08-15 11:00:00,69.7,62.0,30.06,ENE,71,0.0,3.0,76,0.00,,,0.00,weatherlink.com 1.10,2013-08-15 15:00:00,
2013-08-15 11:30:00,73.3,63.0,30.06,ENE,68,0.0,3.0,71,0.00,,,0.00,weatherlink.com 1.10,2013-08-15 15:30:00,
2013-08-15 11:45:00,74.8,62.0,30.06,West,270,0.0,2.0,65,0.00,,,0.00,weatherlink.com 1.10,2013-08-15 15:45:00,
2013-08-15 12:15:00,77.5,63.0,30.06,East,84,1.0,1.0,61,0.00,,,0.00,weatherlink.com 1.10,2013-08-15 16:15:00,
2013-08-15 12:30:00,77.1,63.0,30.05,WSW,255,1.0,1.0,63,0.00,,,0.00,weatherlink.com 1.10,2013-08-15 16:30:00,
2013-08-15 12:45:00,78.6,63.0,30.05,WSW,257,0.0,2.0,60,0.00,,,0.00,weatherlink.com 1.10,2013-08-15 16:45:00,
2013-08-15 13:00:00,78.6,63.0,30.05,SW,217,0.0,2.0,59,0.00,,,0.00,weatherlink.com 1.10,2013-08-15 17:00:00,
2013-08-15 13:15:00,79.7,64.0,30.05,NW,307,0.0,1.0,59,0.00,,,0.00,weatherlink.com 1.10,2013-08-15 17:15:00,
2013-08-15 13:30:00,79.6,64.0,30.04,North,359,1.0,2.0,60,0.00,,,0.00,weatherlink.com 1.10,2013-08-15 17:30:00,
2013-08-15 14:00:00,80.1,65.0,30.03,West,266,0.0,2.0,60,0.00,,,0.00,weatherlink.com 1.10,2013-08-15 18:00:00,
2013-08-15 14:15:00,79.9,65.0,30.03,WSW,251,0.0,3.0,60,0.00,,,0.00,weatherlink.com 1.10,2013-08-15 18:15:00,
2013-08-15 14:30:00,79.4,64.0,30.03,East,94,0.0,2.0,60,0.00,,,0.00,weatherlink.com 1.10,2013-08-15 18:30:00,
2013-08-15 14:45:00,80.6,66.0,30.02,NE,34,0.0,1.0,62,0.00,,,0.00,weatherlink.com 1.10,2013-08-15 18:45:00,
2013-08-15 15:15:00,79.2,67.0,30.02,West,259,0.0,1.0,66,0.00,,,0.00,weatherlink.com 1.10,2013-08-15 19:15:00,
2013-08-15 15:30:00,79.0,66.0,30.02,East,101,0.0,1.0,65,0.00,,,0.00,weatherlink.com 1.10,2013-08-15 19:30:00,
2013-08-15 15:45:00,78.5,67.0,30.01,East,101,0.0,1.0,67,0.00,,,0.00,weatherlink.com 1.10,2013-08-15 19:45:00,
2013-08-15 16:16:00,80.1,67.0,30.01,SSW,203,0.0,0.0,65,0.00,,,0.00,weatherlink.com 1.10,2013-08-15 20:16:00,
2013-08-15 16:31:00,79.5,68.0,30.01,ESE,112,0.0,0.0,68,0.00,,,0.00,weatherlink.com 1.10,2013-08-15 20:31:00,
2013-08-15 16:46:00,79.8,67.0,30.01,ESE,113,1.0,2.0,64,0.00,,,0.00,weatherlink.com 1.10,2013-08-15 20:46:00,
2013-08-15 17:01:00,78.6,68.0,30.01,ESE,113,0.0,0.0,70,0.00,,,0.00,weatherlink.com 1.10,2013-08-15 21:01:00,
2013-08-15 17:16:00,78.3,68.0,30.01,ESE,113,0.0,0.0,71,0.00,,,0.00,weatherlink.com 1.10,2013-08-15 21:16:00,
2013-08-15 17:46:00,77.4,67.0,30.00,ESE,108,0.0,1.0,70,0.00,,,0.00,weatherlink.com 1.10,2013-08-15 21:46:00,
2013-08-15 18:03:00,77.3,68.0,30.01,ESE,108,0.0,0.0,73,0.00,,,0.00,weatherlink.com 1.10,2013-08-15 22:03:00,
2013-08-15 18:16:00,76.8,69.0,30.01,ESE,108,0.0,0.0,77,0.00,,,0.00,weatherlink.com 1.10,2013-08-15 22:16:00,
2013-08-15 18:31:00,76.8,68.0,30.01,ESE,108,0.0,0.0,75,0.00,,,0.00,weatherlink.com 1.10,2013-08-15 22:31:00,
2013-08-15 18:46:00,76.3,69.0,30.00,ESE,108,0.0,0.0,77,0.00,,,0.00,weatherlink.com 1.10,2013-08-15 22:46:00,
2013-08-15 19:16:00,75.8,69.0,30.01,ESE,108,0.0,1.0,79,0.00,,,0.00,weatherlink.com 1.10,2013-08-15 23:16:00,
2013-08-15 19:31:00,74.7,67.0,30.01,North,8,0.0,1.0,78,0.00,,,0.00,weatherlink.com 1.10,2013-08-15 23:31:00,
2013-08-15 19:46:00,74.1,66.0,30.01,North,5,0.0,1.0,76,0.00,,,0.00,weatherlink.com 1.10,2013-08-15 23:46:00,
2013-08-15 20:16:00,72.4,65.0,30.03,WSW,252,0.0,1.0,78,0.00,,,0.00,weatherlink.com 1.10,2013-08-16 00:16:00,
2013-08-15 20:31:00,71.8,65.0,30.03,WSW,253,0.0,0.0,79,0.00,,,0.00,weatherlink.com 1.10,2013-08-16 00:31:00,
2013-08-15 20:46:00,71.1,65.0,30.03,WSW,253,0.0,1.0,82,0.00,,,0.00,weatherlink.com 1.10,2013-08-16 00:46:00,
2013-08-15 21:01:00,70.4,65.0,30.04,WSW,253,0.0,1.0,82,0.00,,,0.00,weatherlink.com 1.10,2013-08-16 01:01:00,
2013-08-15 21:16:00,70.0,64.0,30.04,WSW,253,0.0,0.0,82,0.00,,,0.00,weatherlink.com 1.10,2013-08-16 01:16:00,
2013-08-15 21:31:00,69.5,63.0,30.04,WSW,253,0.0,1.0,81,0.00,,,0.00,weatherlink.com 1.10,2013-08-16 01:31:00,
2013-08-15 21:48:00,68.7,64.0,30.04,WSW,253,0.0,0.0,84,0.00,,,0.00,weatherlink.com 1.10,2013-08-16 01:48:00,
2013-08-15 22:01:00,68.1,64.0,30.05,WSW,253,0.0,0.0,85,0.00,,,0.00,weatherlink.com 1.10,2013-08-16 02:01:00,
2013-08-15 22:16:00,67.6,64.0,30.05,WSW,253,0.0,0.0,87,0.00,,,0.00,weatherlink.com 1.10,2013-08-16 02:16:00,
2013-08-15 22:31:00,67.1,64.0,30.05,WSW,253,0.0,1.0,89,0.00,,,0.00,weatherlink.com 1.10,2013-08-16 02:31:00,
2013-08-15 22:46:00,66.5,63.0,30.06,WSW,253,0.0,0.0,88,0.00,,,0.00,weatherlink.com 1.10,2013-08-16 02:46:00,
2013-08-15 23:01:00,66.6,63.0,30.06,WSW,253,0.0,0.0,89,0.00,,,0.00,weatherlink.com 1.10,2013-08-16 03:01:00,
2013-08-15 23:16:00,66.5,63.0,30.06,WSW,253,0.0,0.0,87,0.00,,,0.00,weatherlink.com 1.10,2013-08-16 03:16:00,
2013-08-15 23:31:00,66.2,63.0,30.06,WSW,253,0.0,0.0,88,0.00,,,0.00,weatherlink.com 1.10,2013-08-16 03:31:00,
2013-08-15 23:46:00,65.9,62.0,30.06,WSW,253,0.0,0.0,87,0.00,,,0.00,weatherlink.com 1.10,2013-08-16 03:46:00,